Time;durP1;ratioP1;P1;durP2;ratioP2;P2;SDS_P1;SDS_P2;PMS_P1;PMS_P2;Temp;Humidity;BMP_temperature;BMP_pressure;BME280_temperature;BME280_humidity;BME280_pressure;Samples;Min_cycle;Max_cycle;Signal;HPM_P1;HPM_P2
2024/01/19 00:00:39;;;;;;;0.00;0.00;;;;;;;-3.09;100.00;145512.88;4977206;28;20243;-64
2024/01/19 00:03:06;;;;;;;0.00;0.00;;;;;;;-3.11;100.00;145509.16;4973044;28;20237;-65
2024/01/19 00:05:32;;;;;;;0.00;0.00;;;;;;;-3.07;100.00;145517.81;4977601;28;20251;-65
2024/01/19 00:08:00;;;;;;;0.00;0.00;;;;;;;-3.04;100.00;145523.97;4976866;28;20239;-65
2024/01/19 00:10:27;;;;;;;0.00;0.00;;;;;;;-3.00;100.00;145533.81;4978051;28;20622;-65
2024/01/19 00:12:54;;;;;;;0.00;0.00;;;;;;;-2.97;100.00;145542.47;4977774;28;20836;-65
2024/01/19 00:15:20;;;;;;;0.00;0.00;;;;;;;-2.91;100.00;145556.03;4976090;28;20232;-65
2024/01/19 00:17:47;;;;;;;0.00;0.00;;;;;;;-2.88;100.00;145562.22;4975386;28;20229;-65
2024/01/19 00:20:14;;;;;;;0.00;0.00;;;;;;;-2.82;100.00;145578.22;4974840;28;20220;-65
2024/01/19 00:22:40;;;;;;;0.00;0.00;;;;;;;-2.73;100.00;145597.97;4979334;28;20290;-65
2024/01/19 00:25:09;;;;;;;0.00;0.00;;;;;;;-2.63;100.00;145622.63;4974260;28;20239;-65
2024/01/19 00:27:35;;;;;;;0.00;0.00;;;;;;;-2.52;100.00;145648.53;4976321;28;20709;-65
2024/01/19 00:30:03;;;;;;;0.00;0.00;;;;;;;-2.43;100.00;145669.53;4975404;28;20314;-65
2024/01/19 00:32:29;;;;;;;0.00;0.00;;;;;;;-2.30;100.00;145700.34;4966548;28;20288;-65
2024/01/19 00:34:56;;;;;;;0.00;0.00;;;;;;;-2.26;100.00;145710.22;4975876;28;20251;-65
2024/01/19 00:37:22;;;;;;;0.00;0.00;;;;;;;-2.21;100.00;145722.56;4975625;28;20234;-65
2024/01/19 00:39:49;;;;;;;0.00;0.00;;;;;;;-2.16;100.00;145733.69;4976433;28;20229;-65
2024/01/19 00:42:17;;;;;;;0.00;0.00;;;;;;;-2.12;100.00;145744.78;4973764;28;20632;-65
2024/01/19 00:44:43;;;;;;;0.00;0.00;;;;;;;-2.06;100.00;145758.31;4979648;28;20712;-65
2024/01/19 00:47:10;;;;;;;0.00;0.00;;;;;;;-1.98;100.00;145776.84;4974062;28;20236;-65
2024/01/19 00:49:37;;;;;;;0.00;0.00;;;;;;;-1.93;100.00;145790.41;4992317;28;20225;-65
2024/01/19 00:52:04;;;;;;;0.00;0.00;;;;;;;-1.89;100.00;145799.09;4974610;28;20240;-65
2024/01/19 00:54:30;;;;;;;0.00;0.00;;;;;;;-1.88;100.00;145800.28;4978601;28;20243;-65
2024/01/19 00:56:57;;;;;;;0.10;0.10;;;;;;;-1.85;100.00;145807.69;4974248;28;20688;-65
2024/01/19 00:59:25;;;;;;;0.00;0.00;;;;;;;-1.87;100.00;145802.75;4977189;28;20224;-65
2024/01/19 01:01:52;;;;;;;0.00;0.00;;;;;;;-1.87;100.00;145802.75;4975860;28;20241;-65
2024/01/19 01:04:18;;;;;;;0.00;0.00;;;;;;;-1.87;100.00;145802.75;4971259;28;20225;-65
2024/01/19 01:06:45;;;;;;;0.03;0.03;;;;;;;-1.85;100.00;145807.69;4977819;28;20311;-65
2024/01/19 01:09:12;;;;;;;0.00;0.00;;;;;;;-1.88;100.00;145800.28;4973089;28;20239;-65
2024/01/19 01:11:38;;;;;;;0.00;0.00;;;;;;;-1.88;100.00;145801.56;4984494;28;20233;-64
2024/01/19 01:14:05;;;;;;;0.00;0.00;;;;;;;-1.86;100.00;145806.50;4976329;28;20221;-64
2024/01/19 01:16:33;;;;;;;0.00;0.00;;;;;;;-1.89;100.00;145799.09;4976845;28;20247;-65
2024/01/19 01:19:00;;;;;;;0.00;0.00;;;;;;;-1.88;100.00;145800.28;4979152;28;20248;-65
2024/01/19 01:21:27;;;;;;;0.00;0.00;;;;;;;-1.92;100.00;145791.69;4975292;28;20229;-65
2024/01/19 01:23:53;;;;;;;0.00;0.00;;;;;;;-1.91;100.00;145792.88;4973304;28;20243;-65
2024/01/19 01:26:20;;;;;;;0.00;0.00;;;;;;;-1.85;100.00;145807.69;4978319;28;20224;-65
2024/01/19 01:28:48;;;;;;;0.10;0.10;;;;;;;-1.85;100.00;145808.97;4974389;28;20222;-65
2024/01/19 01:31:15;;;;;;;0.00;0.00;;;;;;;-1.87;100.00;145804.03;4971172;28;20264;-64
2024/01/19 01:33:43;;;;;;;0.00;0.00;;;;;;;-1.87;100.00;145802.75;4975138;28;20589;-65
2024/01/19 01:36:09;;;;;;;0.00;0.00;;;;;;;-1.89;100.00;145797.81;4975332;28;20225;-65
2024/01/19 01:38:36;;;;;;;0.00;0.00;;;;;;;-1.90;100.00;145795.34;4976548;28;20240;-65
2024/01/19 01:41:03;;;;;;;0.00;0.00;;;;;;;-1.89;100.00;145799.09;4975525;28;20229;-65
2024/01/19 01:43:30;;;;;;;0.00;0.00;;;;;;;-1.90;100.00;145795.34;4976753;28;20589;-65
2024/01/19 01:45:57;;;;;;;0.00;0.00;;;;;;;-1.93;100.00;145789.22;4974650;28;20247;-66
2024/01/19 01:48:25;;;;;;;0.00;0.00;;;;;;;-1.91;100.00;145794.13;4976026;28;20249;-65
2024/01/19 01:50:55;;;;;;;0.00;0.00;;;;;;;-1.88;100.00;145800.28;4983248;28;20234;-65
2024/01/19 01:53:22;;;;;;;0.00;0.00;;;;;;;-1.89;100.00;145797.81;4972475;28;20255;-65
2024/01/19 01:55:49;;;;;;;0.00;0.00;;;;;;;-1.89;100.00;145797.81;4977140;28;20232;-65
2024/01/19 01:58:17;;;;;;;0.00;0.00;;;;;;;-1.90;100.00;145796.63;4972307;28;20795;-65
2024/01/19 02:00:44;;;;;;;0.00;0.00;;;;;;;-1.88;100.00;145801.56;4975883;28;20236;-65
2024/01/19 02:03:11;;;;;;;0.00;0.00;;;;;;;-1.86;100.00;145806.50;4974968;28;20729;-65
2024/01/19 02:05:38;;;;;;;0.00;0.00;;;;;;;-1.82;100.00;145815.09;4973987;28;20221;-65
2024/01/19 02:08:06;;;;;;;0.00;0.00;;;;;;;-1.84;100.00;145811.44;4971587;28;20216;-65
2024/01/19 02:10:33;;;;;;;0.00;0.00;;;;;;;-1.89;100.00;145797.81;4979211;28;20233;-65
2024/01/19 02:13:00;;;;;;;0.00;0.00;;;;;;;-1.87;100.00;145802.75;4971226;28;20240;-65
2024/01/19 02:15:27;;;;;;;0.00;0.00;;;;;;;-1.87;100.00;145802.75;4974120;28;20613;-65
2024/01/19 02:17:54;;;;;;;0.00;0.00;;;;;;;-1.89;100.00;145797.81;4975700;28;20258;-65
2024/01/19 02:20:21;;;;;;;0.00;0.00;;;;;;;-1.88;100.00;145800.28;4973325;28;20705;-65
2024/01/19 02:22:49;;;;;;;0.00;0.00;;;;;;;-1.87;100.00;145802.75;4972312;28;20231;-65
2024/01/19 02:25:17;;;;;;;0.00;0.00;;;;;;;-1.84;100.00;145810.16;4962587;28;20236;-65
2024/01/19 02:27:44;;;;;;;0.00;0.00;;;;;;;-1.82;100.00;145816.38;4981707;28;20236;-65
2024/01/19 02:30:12;;;;;;;0.00;0.00;;;;;;;-1.82;100.00;145816.38;4971379;28;20223;-65
2024/01/19 02:32:38;;;;;;;0.00;0.00;;;;;;;-1.84;100.00;145810.16;4975329;28;20241;-66
2024/01/19 02:35:05;;;;;;;0.00;0.00;;;;;;;-1.84;100.00;145810.16;4974012;28;20212;-65
2024/01/19 02:37:32;;;;;;;0.00;0.00;;;;;;;-1.76;100.00;145828.72;4973363;28;20283;-65
2024/01/19 02:40:00;;;;;;;0.00;0.00;;;;;;;-1.77;100.00;145826.25;4969516;28;20237;-65
2024/01/19 02:42:28;;;;;;;0.00;0.00;;;;;;;-1.75;100.00;145831.19;4972063;28;20240;-65
2024/01/19 02:44:54;;;;;;;0.00;0.00;;;;;;;-1.74;100.00;145834.84;4973108;28;20221;-65
2024/01/19 02:47:21;;;;;;;0.00;0.00;;;;;;;-1.76;100.00;145829.91;4974208;28;20225;-66
2024/01/19 02:49:48;;;;;;;0.00;0.00;;;;;;;-1.83;100.00;145813.91;4973799;28;20245;-65
2024/01/19 02:52:14;;;;;;;0.00;0.00;;;;;;;-1.83;100.00;145813.91;4970587;28;21819;-65
2024/01/19 02:54:41;;;;;;;0.00;0.00;;;;;;;-1.75;100.00;145832.38;4971991;28;20223;-65
2024/01/19 02:57:08;;;;;;;0.00;0.00;;;;;;;-1.85;100.00;145807.69;4973218;28;20283;-65
2024/01/19 02:59:35;;;;;;;0.00;0.00;;;;;;;-1.88;100.00;145801.56;4977120;28;20236;-65
2024/01/19 03:02:02;;;;;;;0.00;0.00;;;;;;;-1.90;100.00;145795.34;4971864;28;20229;-65
2024/01/19 03:04:29;;;;;;;0.00;0.00;;;;;;;-1.93;100.00;145789.22;4973841;28;20235;-65
2024/01/19 03:06:57;;;;;;;0.00;0.00;;;;;;;-1.89;100.00;145799.09;4969229;28;20243;-65
2024/01/19 03:09:23;;;;;;;0.00;0.00;;;;;;;-2.01;100.00;145769.47;4978412;28;20303;-65
2024/01/19 03:11:50;;;;;;;0.00;0.00;;;;;;;-2.05;100.00;145759.59;4978787;28;20232;-65
2024/01/19 03:14:16;;;;;;;0.00;0.00;;;;;;;-2.01;100.00;145769.47;4976452;28;20641;-65
2024/01/19 03:16:45;;;;;;;0.00;0.00;;;;;;;-2.04;100.00;145763.25;4977812;28;20237;-65
2024/01/19 03:19:12;;;;;;;0.00;0.00;;;;;;;-1.95;100.00;145784.28;4977512;28;20224;-65
2024/01/19 03:21:39;;;;;;;0.00;0.00;;;;;;;-1.99;100.00;145775.59;4978953;28;20607;-66
2024/01/19 03:24:06;;;;;;;0.00;0.00;;;;;;;-2.03;100.00;145765.72;4974124;28;20232;-65
2024/01/19 03:26:32;;;;;;;0.00;0.00;;;;;;;-1.95;100.00;145784.28;4978858;28;20237;-66
2024/01/19 03:28:59;;;;;;;0.00;0.00;;;;;;;-1.97;100.00;145780.53;4970577;28;20238;-65
2024/01/19 03:31:26;;;;;;;0.00;0.00;;;;;;;-1.95;100.00;145785.47;4977928;28;20250;-65
2024/01/19 03:33:54;;;;;;;0.00;0.00;;;;;;;-1.91;100.00;145792.88;4979209;28;20570;-65
2024/01/19 03:36:20;;;;;;;0.00;0.00;;;;;;;-1.88;100.00;145801.56;4977040;28;20234;-65
2024/01/19 03:38:48;;;;;;;0.00;0.00;;;;;;;-1.91;100.00;145792.88;4985550;28;20228;-65
2024/01/19 03:41:14;;;;;;;0.00;0.00;;;;;;;-1.91;100.00;145794.13;4973587;28;20245;-65
2024/01/19 03:43:41;;;;;;;0.00;0.00;;;;;;;-1.88;100.00;145800.28;4975432;28;20233;-65
2024/01/19 03:46:08;;;;;;;0.00;0.00;;;;;;;-1.86;100.00;145805.22;4977025;28;20294;-65
2024/01/19 03:48:35;;;;;;;0.00;0.00;;;;;;;-1.85;100.00;145808.97;4978319;28;20716;-65
2024/01/19 03:51:03;;;;;;;0.00;0.00;;;;;;;-1.87;100.00;145804.03;4975268;28;20239;-65
2024/01/19 03:53:30;;;;;;;0.00;0.00;;;;;;;-1.94;100.00;145787.94;4985969;28;20229;-65
2024/01/19 03:55:56;;;;;;;0.00;0.00;;;;;;;-1.91;100.00;145792.88;4976355;28;20259;-65
2024/01/19 03:58:23;;;;;;;0.00;0.00;;;;;;;-1.90;100.00;145796.63;4979832;28;20236;-65
2024/01/19 04:04:03;;;;;;;0.00;0.00;;;;;;;-1.97;100.00;145780.53;5701002;23;20262;-66
2024/01/19 04:06:31;;;;;;;0.00;0.00;;;;;;;-1.93;100.00;145790.41;4992971;28;20217;-66
2024/01/19 04:08:58;;;;;;;0.00;0.00;;;;;;;-1.86;100.00;145805.22;4997848;28;20248;-66
2024/01/19 04:11:25;;;;;;;0.00;0.00;;;;;;;-1.89;100.00;145799.09;5000713;28;20717;-66
2024/01/19 04:13:51;;;;;;;0.00;0.00;;;;;;;-1.85;100.00;145808.97;4990944;28;20232;-66
2024/01/19 04:16:18;;;;;;;0.00;0.00;;;;;;;-1.83;100.00;145813.91;4984965;28;21114;-66
2024/01/19 04:18:49;;;;;;;0.00;0.00;;;;;;;-1.81;100.00;145817.56;4986790;28;20302;-66
2024/01/19 04:21:15;;;;;;;0.00;0.00;;;;;;;-1.81;100.00;145818.84;4985139;28;20714;-66
2024/01/19 04:23:45;;;;;;;0.00;0.00;;;;;;;-1.75;100.00;145831.19;4979360;28;20239;-66
2024/01/19 04:26:12;;;;;;;0.00;0.00;;;;;;;-1.70;100.00;145843.53;4984343;28;20607;-66
2024/01/19 04:28:39;;;;;;;0.00;0.00;;;;;;;-1.72;100.00;145839.78;4986711;28;20225;-66
2024/01/19 04:31:06;;;;;;;0.00;0.00;;;;;;;-1.67;100.00;145850.94;5198149;23;20689;-66
2024/01/19 04:33:33;;;;;;;0.00;0.00;;;;;;;-1.65;100.00;145855.88;4997073;28;20225;-66
2024/01/19 04:35:59;;;;;;;0.00;0.00;;;;;;;-1.60;100.00;145866.97;4994019;28;20236;-66
2024/01/19 04:38:26;;;;;;;0.00;0.00;;;;;;;-1.59;100.00;145869.44;4999339;28;20289;-66
2024/01/19 04:40:54;;;;;;;0.00;0.00;;;;;;;-1.58;100.00;145873.09;4997727;28;20228;-66
2024/01/19 04:43:21;;;;;;;0.00;0.00;;;;;;;-1.59;100.00;145870.63;4993870;28;20224;-66
2024/01/19 04:45:47;;;;;;;0.00;0.00;;;;;;;-1.60;100.00;145866.97;4996521;28;20924;-66
2024/01/19 04:48:14;;;;;;;0.00;0.00;;;;;;;-1.64;100.00;145858.34;4991071;28;20227;-66
2024/01/19 04:50:41;;;;;;;0.00;0.00;;;;;;;-1.68;100.00;145849.66;4996455;28;20742;-66
2024/01/19 04:53:07;;;;;;;0.00;0.00;;;;;;;-1.72;100.00;145838.59;4993610;28;20235;-66
2024/01/19 04:55:34;;;;;;;0.00;0.00;;;;;;;-1.74;100.00;145834.84;4995460;28;20233;-66
2024/01/19 04:58:02;;;;;;;0.00;0.00;;;;;;;-1.68;100.00;145848.47;4991963;28;20235;-66
2024/01/19 05:00:28;;;;;;;0.00;0.00;;;;;;;-1.78;100.00;145824.97;4998903;28;20250;-66
2024/01/19 05:02:55;;;;;;;0.00;0.00;;;;;;;-1.95;100.00;145785.47;4993793;28;20236;-66
2024/01/19 05:05:22;;;;;;;0.00;0.00;;;;;;;-1.96;100.00;145783.00;5000463;28;20232;-66
2024/01/19 05:07:48;;;;;;;0.00;0.00;;;;;;;-2.05;100.00;145760.78;4994263;28;20688;-66
2024/01/19 05:10:15;;;;;;;0.00;0.00;;;;;;;-2.11;100.00;145747.25;4993744;28;20232;-66
2024/01/19 05:12:41;;;;;;;0.00;0.00;;;;;;;-2.19;100.00;145726.28;4993042;28;20643;-66
2024/01/19 05:15:11;;;;;;;0.00;0.00;;;;;;;-2.28;100.00;145706.53;4992464;28;20232;-66
2024/01/19 05:17:37;;;;;;;0.00;0.00;;;;;;;-2.38;100.00;145681.84;4996880;28;20232;-66
2024/01/19 05:20:05;;;;;;;0.00;0.00;;;;;;;-2.52;100.00;145648.53;4991333;28;20221;-66
2024/01/19 05:22:31;;;;;;;0.00;0.00;;;;;;;-2.68;100.00;145611.56;4994960;28;20311;-66
2024/01/19 05:24:58;;;;;;;0.00;0.00;;;;;;;-2.76;100.00;145591.81;4993016;28;20231;-66
2024/01/19 05:27:25;;;;;;;0.00;0.00;;;;;;;-2.84;100.00;145572.09;4997878;28;21085;-66
2024/01/19 05:29:51;;;;;;;0.00;0.00;;;;;;;-2.88;100.00;145563.44;4994811;28;20243;-66
2024/01/19 05:32:19;;;;;;;0.00;0.00;;;;;;;-2.86;100.00;145568.34;4993663;28;20232;-66
2024/01/19 05:34:46;;;;;;;0.00;0.00;;;;;;;-2.87;100.00;145565.88;4994667;28;20629;-66
2024/01/19 05:37:12;;;;;;;0.10;0.10;;;;;;;-2.88;100.00;145562.22;4993352;28;20222;-66
2024/01/19 05:39:39;;;;;;;0.00;0.00;;;;;;;-2.95;100.00;145546.16;4993984;28;20870;-66
2024/01/19 05:42:06;;;;;;;0.00;0.00;;;;;;;-2.98;100.00;145538.75;4990732;28;20251;-66
2024/01/19 05:44:32;;;;;;;0.00;0.00;;;;;;;-3.03;100.00;145526.44;4994212;28;20227;-66
2024/01/19 05:46:59;;;;;;;0.00;0.00;;;;;;;-2.94;100.00;145548.63;4988213;28;20598;-66
2024/01/19 05:49:27;;;;;;;0.00;0.00;;;;;;;-2.84;100.00;145573.28;4996950;28;20256;-66
2024/01/19 05:51:53;;;;;;;0.03;0.03;;;;;;;-2.80;100.00;145580.69;4996670;28;20228;-66
2024/01/19 05:54:20;;;;;;;0.00;0.00;;;;;;;-2.73;100.00;145599.22;4991359;28;20231;-66
2024/01/19 05:56:47;;;;;;;0.00;0.00;;;;;;;-2.66;100.00;145615.22;4995157;28;20232;-66
2024/01/19 05:59:13;;;;;;;0.10;0.10;;;;;;;-2.56;100.00;145638.66;4993389;28;20220;-66
2024/01/19 06:01:40;;;;;;;0.00;0.00;;;;;;;-2.39;100.00;145680.59;4995008;28;20330;-66
2024/01/19 06:04:06;;;;;;;0.00;0.00;;;;;;;-2.36;100.00;145686.78;4999838;28;20725;-66
2024/01/19 06:06:34;;;;;;;0.00;0.00;;;;;;;-2.38;100.00;145681.84;4993726;28;20244;-64
2024/01/19 06:09:02;;;;;;;0.00;0.00;;;;;;;-2.28;100.00;145706.53;4992838;28;20219;-66
2024/01/19 06:11:28;;;;;;;0.00;0.00;;;;;;;-2.27;100.00;145709.00;4992361;28;20337;-66
2024/01/19 06:13:55;;;;;;;0.00;0.00;;;;;;;-2.28;100.00;145706.53;4989337;28;20220;-66
2024/01/19 06:16:22;;;;;;;0.00;0.00;;;;;;;-2.23;100.00;145718.88;4994979;28;20239;-66
2024/01/19 06:18:48;;;;;;;0.00;0.00;;;;;;;-2.20;100.00;145725.03;5007682;28;20243;-66
2024/01/19 06:21:15;;;;;;;0.00;0.00;;;;;;;-2.14;100.00;145739.84;4989765;28;20244;-64
2024/01/19 06:23:43;;;;;;;0.00;0.00;;;;;;;-2.21;100.00;145721.34;4993924;28;20220;-65
2024/01/19 06:26:10;;;;;;;0.00;0.00;;;;;;;-2.17;100.00;145731.22;4990565;28;20223;-65
2024/01/19 06:28:37;;;;;;;0.00;0.00;;;;;;;-2.25;100.00;145713.94;4996973;28;20228;-65
2024/01/19 06:31:03;;;;;;;0.00;0.00;;;;;;;-2.24;100.00;145716.41;4990202;28;20227;-66
2024/01/19 06:33:30;;;;;;;0.00;0.00;;;;;;;-2.24;100.00;145716.41;4995227;28;20351;-66
2024/01/19 06:35:57;;;;;;;0.00;0.00;;;;;;;-2.18;100.00;145728.75;4997876;28;20243;-66
2024/01/19 06:38:24;;;;;;;0.00;0.00;;;;;;;-2.21;100.00;145721.34;4993701;28;20320;-66
2024/01/19 06:40:52;;;;;;;0.00;0.00;;;;;;;-2.21;100.00;145721.34;4995251;28;20228;-66
2024/01/19 06:43:19;;;;;;;0.00;0.00;;;;;;;-2.25;100.00;145712.69;4988900;28;20579;-66
2024/01/19 06:45:46;;;;;;;0.10;0.10;;;;;;;-2.21;100.00;145721.34;4993360;28;20231;-66
2024/01/19 06:48:12;;;;;;;0.00;0.00;;;;;;;-2.19;100.00;145727.50;4992484;28;20926;-66
2024/01/19 06:50:39;;;;;;;0.00;0.00;;;;;;;-2.11;100.00;145745.97;4997882;28;20233;-66
2024/01/19 06:53:06;;;;;;;0.00;0.00;;;;;;;-2.09;100.00;145750.91;4990935;28;20220;-66
2024/01/19 06:55:33;;;;;;;0.00;0.00;;;;;;;-2.07;100.00;145755.84;4996540;28;20330;-66
2024/01/19 06:58:01;;;;;;;0.00;0.00;;;;;;;-2.07;100.00;145755.84;4990568;28;20224;-66
2024/01/19 07:00:27;;;;;;;0.00;0.00;;;;;;;-2.06;100.00;145758.31;4994768;28;20242;-66
2024/01/19 07:02:54;;;;;;;0.00;0.00;;;;;;;-1.99;100.00;145774.41;4992152;28;20228;-66
2024/01/19 07:05:21;;;;;;;0.00;0.00;;;;;;;-2.07;100.00;145755.84;4992754;28;20232;-66
2024/01/19 07:07:48;;;;;;;0.00;0.00;;;;;;;-2.09;100.00;145750.91;4992794;28;20322;-67
2024/01/19 07:10:15;;;;;;;0.00;0.00;;;;;;;-2.12;100.00;145743.56;4992932;28;20350;-66
2024/01/19 07:12:42;;;;;;;0.00;0.00;;;;;;;-2.09;100.00;145750.91;4993149;28;20699;-66
2024/01/19 07:15:10;;;;;;;0.00;0.00;;;;;;;-2.17;100.00;145731.22;4988247;28;20223;-67
2024/01/19 07:17:37;;;;;;;0.00;0.00;;;;;;;-2.05;100.00;145760.78;4987185;28;20386;-67
2024/01/19 07:20:05;;;;;;;0.00;0.00;;;;;;;-2.12;100.00;145744.78;5003560;28;20369;-67
2024/01/19 07:22:32;;;;;;;0.00;0.00;;;;;;;-2.02;100.00;145767.00;4993233;28;20248;-67
2024/01/19 07:24:58;;;;;;;0.00;0.00;;;;;;;-2.13;100.00;145741.09;4992528;28;20217;-66
2024/01/19 07:27:25;;;;;;;0.07;0.07;;;;;;;-2.09;100.00;145752.19;4992121;28;20233;-66
2024/01/19 07:29:51;;;;;;;0.00;0.00;;;;;;;-2.06;100.00;145758.31;4993853;28;20222;-66
2024/01/19 07:32:21;;;;;;;0.00;0.00;;;;;;;-2.08;100.00;145753.38;4987592;28;20241;-66
2024/01/19 07:34:48;;;;;;;0.00;0.00;;;;;;;-2.08;100.00;145753.38;4994230;28;21014;-66
2024/01/19 07:37:15;;;;;;;0.00;0.00;;;;;;;-2.09;100.00;145752.19;4997847;28;21568;-66
2024/01/19 07:39:41;;;;;;;0.00;0.00;;;;;;;-2.01;100.00;145770.66;4994168;28;20230;-66
2024/01/19 07:42:08;;;;;;;0.00;0.00;;;;;;;-1.93;100.00;145790.41;4990194;28;20224;-66
2024/01/19 07:44:35;;;;;;;0.00;0.00;;;;;;;-1.93;100.00;145790.41;4989946;28;20237;-66
2024/01/19 07:47:01;;;;;;;0.00;0.00;;;;;;;-1.87;100.00;145802.75;4993550;28;20297;-66
2024/01/19 07:49:29;;;;;;;0.00;0.00;;;;;;;-1.77;100.00;145827.44;4991973;28;20236;-66
2024/01/19 07:51:56;;;;;;;0.00;0.00;;;;;;;-1.86;100.00;145806.50;4993299;28;20240;-66
2024/01/19 07:54:23;;;;;;;0.00;0.00;;;;;;;-1.85;100.00;145808.97;4994205;28;20224;-66
2024/01/19 07:56:50;;;;;;;0.00;0.00;;;;;;;-1.83;100.00;145812.63;5012924;28;20321;-66
2024/01/19 07:59:16;;;;;;;0.00;0.00;;;;;;;-1.77;100.00;145827.44;4997194;28;20228;-66
2024/01/19 08:01:43;;;;;;;0.00;0.00;;;;;;;-1.84;100.00;145811.44;4996810;28;20754;-66
2024/01/19 08:04:10;;;;;;;0.00;0.00;;;;;;;-1.91;100.00;145792.88;4995961;28;20224;-66
2024/01/19 08:06:39;;;;;;;0.00;0.00;;;;;;;-1.87;100.00;145802.75;4995661;28;20225;-66
2024/01/19 08:09:07;;;;;;;0.00;0.00;;;;;;;-1.79;100.00;145822.50;4996326;28;20618;-66
2024/01/19 08:11:34;;;;;;;0.00;0.00;;;;;;;-1.82;100.00;145816.38;5004512;28;20295;-66
2024/01/19 08:14:01;;;;;;;0.00;0.00;;;;;;;-1.80;100.00;145820.03;4994883;28;20251;-66
2024/01/19 08:16:28;;;;;;;0.00;0.00;;;;;;;-1.80;100.00;145820.03;4998036;28;20236;-67
2024/01/19 08:18:56;;;;;;;0.00;0.00;;;;;;;-1.71;100.00;145842.25;4997802;28;20232;-67
2024/01/19 08:21:23;;;;;;;0.00;0.00;;;;;;;-1.67;100.00;145850.94;4999135;28;20298;-67
2024/01/19 08:23:51;;;;;;;0.00;0.00;;;;;;;-1.71;100.00;145842.25;5001828;28;20228;-66
2024/01/19 08:26:20;;;;;;;0.00;0.00;;;;;;;-1.67;100.00;145850.94;4992642;28;20679;-66
2024/01/19 08:28:48;;;;;;;0.00;0.00;;;;;;;-1.68;100.00;145849.66;4996688;28;20579;-66
2024/01/19 08:31:15;;;;;;;0.00;0.00;;;;;;;-1.67;100.00;145850.94;4991900;28;20220;-66
2024/01/19 08:33:41;;;;;;;0.00;0.00;;;;;;;-1.58;100.00;145871.91;4995609;28;20234;-66
2024/01/19 08:36:08;;;;;;;0.00;0.00;;;;;;;-1.55;100.00;145880.50;4991125;28;20235;-66
2024/01/19 08:38:35;;;;;;;0.00;0.00;;;;;;;-1.59;100.00;145869.44;4998747;28;20239;-66
2024/01/19 08:41:03;;;;;;;0.00;0.00;;;;;;;-1.51;100.00;145889.19;4993416;28;20258;-66
2024/01/19 08:43:29;;;;;;;0.00;0.00;;;;;;;-1.53;100.00;145884.25;5009632;28;20244;-67
2024/01/19 08:45:56;;;;;;;0.00;0.00;;;;;;;-1.46;100.00;145901.53;4994080;28;20224;-66
2024/01/19 08:48:24;;;;;;;0.00;0.00;;;;;;;-1.45;100.00;145904.00;4994696;28;20272;-66
2024/01/19 08:50:51;;;;;;;0.00;0.00;;;;;;;-1.39;100.00;145917.56;4997823;28;20329;-66
2024/01/19 08:53:18;;;;;;;0.00;0.00;;;;;;;-1.33;100.00;145932.38;4995015;28;20221;-66
2024/01/19 08:55:44;;;;;;;0.00;0.00;;;;;;;-1.23;100.00;145955.88;4996626;28;20221;-66
2024/01/19 08:58:12;;;;;;;0.00;0.00;;;;;;;-1.27;100.00;145947.19;4993357;28;20221;-66
2024/01/19 09:00:39;;;;;;;0.00;0.00;;;;;;;-1.23;100.00;145955.88;4994645;28;20548;-66
2024/01/19 09:03:06;;;;;;;0.00;0.00;;;;;;;-1.15;100.00;145975.63;4994100;28;20300;-66
2024/01/19 09:05:34;;;;;;;0.00;0.00;;;;;;;-1.05;100.00;146000.28;4997751;28;20274;-66
2024/01/19 09:08:01;;;;;;;0.00;0.00;;;;;;;-0.97;100.00;146017.56;4990810;28;20232;-66
2024/01/19 09:10:29;;;;;;;0.00;0.00;;;;;;;-0.99;100.00;146013.91;4988923;28;20232;-66
2024/01/19 09:12:56;;;;;;;0.00;0.00;;;;;;;-0.94;100.00;146026.25;4993463;28;20256;-66
2024/01/19 09:15:24;;;;;;;0.00;0.00;;;;;;;-0.87;100.00;146042.28;4983592;28;20296;-66
2024/01/19 09:17:51;;;;;;;0.00;0.00;;;;;;;-0.80;100.00;146058.38;4993931;28;20701;-66
2024/01/19 09:20:17;;;;;;;0.00;0.00;;;;;;;-0.85;100.00;146046.00;4997606;28;20232;-66
2024/01/19 09:22:44;;;;;;;0.00;0.00;;;;;;;-0.76;100.00;146069.47;4994201;28;20228;-67
2024/01/19 09:25:11;;;;;;;0.00;0.00;;;;;;;-0.78;100.00;146063.31;4995710;28;20601;-67
2024/01/19 09:27:38;;;;;;;0.00;0.00;;;;;;;-0.87;100.00;146042.28;4996081;28;20224;-67
2024/01/19 09:30:06;;;;;;;0.00;0.00;;;;;;;-0.95;100.00;146023.78;4991433;28;20236;-67
2024/01/19 09:32:34;;;;;;;0.00;0.00;;;;;;;-0.96;100.00;146020.06;4996817;28;20239;-67
2024/01/19 09:35:05;;;;;;;0.00;0.00;;;;;;;-0.99;100.00;146012.63;4998264;28;20232;-67
2024/01/19 09:37:32;;;;;;;0.00;0.00;;;;;;;-0.90;100.00;146034.88;4986125;28;20228;-67
2024/01/19 09:39:58;;;;;;;0.00;0.00;;;;;;;-0.68;100.00;146086.75;4993187;28;20239;-67
2024/01/19 09:42:31;;;;;;;0.00;0.00;;;;;;;-0.39;100.00;146157.19;4994454;28;20579;-67
2024/01/19 09:45:02;;;;;;;0.00;0.00;;;;;;;-0.25;100.00;146189.31;4991227;28;20238;-67
2024/01/19 09:47:37;;;;;;;0.00;0.00;;;;;;;-0.43;100.00;146147.28;4999826;28;20634;-67
2024/01/19 09:50:05;;;;;;;0.00;0.00;;;;;;;-0.24;100.00;146191.78;4993909;28;20311;-67
2024/01/19 09:52:44;;;;;;;0.00;0.00;;;;;;;-0.24;100.00;146193.03;4997413;28;20781;-67
2024/01/19 09:55:12;;;;;;;0.00;0.00;;;;;;;-0.26;100.00;146188.09;4995343;28;20235;-67
2024/01/19 09:57:45;;;;;;;0.00;0.00;;;;;;;-0.22;100.00;146196.72;4993364;28;20271;-67
2024/01/19 10:00:13;;;;;;;0.00;0.00;;;;;;;-0.08;100.00;146230.13;4993424;28;20224;-67
2024/01/19 10:02:45;;;;;;;0.00;0.00;;;;;;;0.07;100.00;146267.16;5001977;28;20259;-67
2024/01/19 10:05:13;;;;;;;0.00;0.00;;;;;;;0.29;100.00;146319.09;4992563;28;20228;-64
2024/01/19 10:07:42;;;;;;;0.00;0.00;;;;;;;0.47;95.68;146362.38;4986222;28;20229;-67
2024/01/19 10:10:09;;;;;;;0.00;0.00;;;;;;;0.37;93.73;146337.66;4999550;28;20220;-64
2024/01/19 10:12:37;;;;;;;0.00;0.00;;;;;;;0.25;94.31;146309.19;4997252;28;20252;-66
2024/01/19 10:15:06;;;;;;;0.00;0.00;;;;;;;0.36;95.77;146335.19;4994883;28;20308;-67
2024/01/19 10:17:34;;;;;;;0.00;0.00;;;;;;;0.23;93.60;146304.25;4992310;28;20229;-67
2024/01/19 10:20:03;;;;;;;0.00;0.00;;;;;;;0.27;95.58;146315.41;4991059;28;20339;-67
2024/01/19 10:22:31;;;;;;;0.00;0.00;;;;;;;0.28;94.14;146316.63;4994829;28;20236;-67
2024/01/19 10:25:04;;;;;;;0.00;0.00;;;;;;;0.18;96.14;146293.16;4990188;28;20316;-67
2024/01/19 10:27:39;;;;;;;0.00;0.00;;;;;;;0.12;97.68;146279.53;4993222;28;20726;-67
2024/01/19 10:30:10;;;;;;;0.00;0.00;;;;;;;0.15;98.52;146285.72;4991470;28;20618;-67
2024/01/19 10:32:39;;;;;;;0.00;0.00;;;;;;;0.20;99.60;146298.09;4994942;28;20259;-67
2024/01/19 10:35:10;;;;;;;0.00;0.00;;;;;;;0.43;96.95;146353.72;4991472;28;20228;-67
2024/01/19 10:37:37;;;;;;;0.00;0.00;;;;;;;0.28;94.35;146317.88;4996571;28;20618;-64
2024/01/19 10:40:18;;;;;;;0.00;0.00;;;;;;;0.40;92.68;146346.28;4992955;28;20761;-64
2024/01/19 10:42:46;;;;;;;0.00;0.00;;;;;;;0.32;90.75;146325.28;4994099;28;20773;-66
2024/01/19 10:45:18;;;;;;;0.00;0.00;;;;;;;0.33;92.42;146328.97;4994774;28;20220;-66
2024/01/19 10:47:45;;;;;;;0.00;0.00;;;;;;;0.28;95.16;146316.63;4993082;28;20821;-67
2024/01/19 10:50:14;;;;;;;0.00;0.00;;;;;;;0.44;93.27;146356.19;4991800;28;20224;-67
2024/01/19 10:52:43;;;;;;;0.00;0.00;;;;;;;0.53;95.68;146375.97;4995580;28;20638;-67
2024/01/19 10:55:11;;;;;;;0.00;0.00;;;;;;;0.56;93.93;146383.38;4990464;28;20213;-66
2024/01/19 10:57:38;;;;;;;0.00;0.00;;;;;;;0.63;95.51;146399.44;4992304;28;20247;-65
2024/01/19 11:00:21;;;;;;;0.00;0.00;;;;;;;0.63;96.06;146400.72;4989478;28;20228;-65
2024/01/19 11:02:49;;;;;;;0.00;0.00;;;;;;;0.64;92.82;146401.91;4993818;28;20246;-66
2024/01/19 11:05:19;;;;;;;0.00;0.00;;;;;;;0.56;93.96;146384.59;4990065;28;20248;-66
2024/01/19 11:07:46;;;;;;;0.00;0.00;;;;;;;0.61;93.28;146395.75;5007829;28;20749;-66
2024/01/19 11:10:13;;;;;;;0.00;0.00;;;;;;;0.37;93.97;146338.88;4990082;28;20219;-66
2024/01/19 11:12:47;;;;;;;0.00;0.00;;;;;;;0.33;95.41;146328.97;4994040;28;20260;-66
2024/01/19 11:15:21;;;;;;;0.00;0.00;;;;;;;0.42;94.10;146351.25;4988582;28;20236;-66
2024/01/19 11:17:48;;;;;;;0.00;0.00;;;;;;;0.27;94.77;146314.16;4994118;28;20302;-66
2024/01/19 11:20:15;;;;;;;0.00;0.00;;;;;;;0.49;94.91;146366.06;4990643;28;20224;-66
2024/01/19 11:22:44;;;;;;;0.00;0.00;;;;;;;0.52;96.00;146374.75;5001409;28;20258;-66